Time;durP1;ratioP1;P1;durP2;ratioP2;P2;SDS_P1;SDS_P2;PMS_P1;PMS_P2;Temp;Humidity;BMP_temperature;BMP_pressure;BME280_temperature;BME280_humidity;BME280_pressure;Samples;Min_cycle;Max_cycle;Signal;HPM_P1;HPM_P2
2021/03/18 00:01:18;;;;;;;30.73;6.53;;;6.00;86.80;;;;;;4995464;28;20361;-80
2021/03/18 00:03:45;;;;;;;30.92;5.80;;;6.00;86.90;;;;;;4997339;28;20026;-80
2021/03/18 00:06:11;;;;;;;36.88;6.20;;;6.00;86.80;;;;;;5006078;28;20040;-80
2021/03/18 00:08:39;;;;;;;29.83;5.55;;;6.10;86.60;;;;;;5004297;28;20117;-81
2021/03/18 00:11:13;;;;;;;34.13;7.03;;;6.10;86.20;;;;;;5004091;28;20026;-79
2021/03/18 00:13:40;;;;;;;34.45;6.05;;;6.10;86.00;;;;;;5001935;28;20485;-80
2021/03/18 00:16:07;;;;;;;30.60;5.78;;;6.10;85.90;;;;;;5003905;28;20492;-79
2021/03/18 00:18:39;;;;;;;33.90;6.22;;;6.10;85.80;;;;;;4996814;28;20120;-79
2021/03/18 00:21:05;;;;;;;29.85;6.00;;;6.10;85.70;;;;;;4999545;28;20124;-79
2021/03/18 00:23:32;;;;;;;35.45;5.80;;;6.10;85.70;;;;;;5001872;28;20071;-81
2021/03/18 00:25:59;;;;;;;36.88;5.95;;;6.10;85.70;;;;;;4999845;28;20030;-83
2021/03/18 00:28:25;;;;;;;31.80;6.95;;;6.10;85.70;;;;;;5001374;28;20117;-80
2021/03/18 00:30:50;;;;;;;33.10;6.35;;;6.20;85.70;;;;;;4997485;28;20113;-80
2021/03/18 00:33:16;;;;;;;36.88;5.72;;;6.10;85.60;;;;;;5002923;28;20042;-79
2021/03/18 00:35:43;;;;;;;30.65;5.85;;;6.20;85.60;;;;;;5006010;28;20039;-79
2021/03/18 00:38:08;;;;;;;28.05;5.60;;;6.10;85.70;;;;;;5005126;28;20466;-79
2021/03/18 00:40:38;;;;;;;31.45;6.32;;;6.10;85.60;;;;;;5003225;28;20034;-79
2021/03/18 00:43:08;;;;;;;36.05;6.53;;;6.10;85.60;;;;;;4998466;28;20061;-79
2021/03/18 00:45:36;;;;;;;40.15;6.43;;;6.10;85.60;;;;;;5006886;28;20073;-79
2021/03/18 00:48:03;;;;;;;37.70;7.03;;;6.20;85.50;;;;;;5001226;28;20473;-78
2021/03/18 00:50:55;;;;;;;29.98;6.05;;;6.20;85.30;;;;;;4998089;28;20023;-79
2021/03/18 00:53:40;;;;;;;24.05;6.35;;;6.10;85.40;;;;;;4998167;28;21427;-81
2021/03/18 00:56:12;;;;;;;;;;;6.20;85.40;;;;;;5006321;28;20121;-80
2021/03/18 00:58:42;;;;;;;34.58;6.63;;;6.20;85.30;;;;;;4999184;28;19964;-79
2021/03/18 01:01:08;;;;;;;27.65;5.75;;;6.20;85.30;;;;;;4997751;28;20031;-80
2021/03/18 01:03:39;;;;;;;31.58;6.20;;;6.20;85.20;;;;;;5004731;28;20034;-79
2021/03/18 01:06:15;;;;;;;26.38;6.43;;;6.20;85.30;;;;;;4996927;28;20038;-82
2021/03/18 01:08:42;;;;;;;35.47;7.00;;;6.20;85.10;;;;;;4989130;28;20045;-79
2021/03/18 01:11:10;;;;;;;35.22;6.20;;;6.20;85.00;;;;;;4997946;28;20069;-81
2021/03/18 01:13:37;;;;;;;30.98;6.25;;;6.20;84.90;;;;;;5000610;28;20042;-80
2021/03/18 01:16:10;;;;;;;36.75;6.85;;;6.10;84.40;;;;;;5000657;28;20034;-81
2021/03/18 01:18:41;;;;;;;22.85;5.38;;;6.20;84.00;;;;;;5002779;28;20057;-79
2021/03/18 01:21:07;;;;;;;34.03;6.00;;;6.10;83.80;;;;;;5000632;28;20077;-82
2021/03/18 01:23:33;;;;;;;26.10;5.55;;;6.20;83.70;;;;;;4994950;28;20425;-79
2021/03/18 01:25:59;;;;;;;31.67;6.13;;;6.20;83.60;;;;;;4997503;28;20066;-79
2021/03/18 01:28:25;;;;;;;32.50;6.40;;;6.10;83.70;;;;;;5000307;28;20030;-79
2021/03/18 01:30:53;;;;;;;35.00;5.15;;;6.20;83.80;;;;;;4996817;28;20030;-80
2021/03/18 01:33:19;;;;;;;27.92;5.78;;;6.10;83.80;;;;;;4991534;28;20026;-81
2021/03/18 01:35:46;;;;;;;29.60;5.88;;;6.20;83.90;;;;;;4999626;28;20041;-79
2021/03/18 01:38:11;;;;;;;25.50;5.63;;;6.10;84.20;;;;;;4995702;28;20582;-80
2021/03/18 01:40:38;;;;;;;28.45;5.28;;;6.20;84.30;;;;;;5006665;28;20034;-80
2021/03/18 01:43:04;;;;;;;30.08;6.45;;;6.10;84.70;;;;;;5004024;28;20458;-80
2021/03/18 01:45:29;;;;;;;35.80;6.53;;;6.00;84.70;;;;;;5003301;28;20041;-79
2021/03/18 01:47:57;;;;;;;30.08;6.30;;;5.90;84.70;;;;;;5007454;28;20033;-79
2021/03/18 01:50:29;;;;;;;33.40;6.55;;;6.00;84.70;;;;;;4989610;28;20065;-79
2021/03/18 01:52:56;;;;;;;27.70;5.22;;;5.90;84.80;;;;;;4992262;28;20031;-79
2021/03/18 01:55:28;;;;;;;28.75;4.72;;;5.90;84.90;;;;;;4999412;28;20581;-81
2021/03/18 01:57:55;;;;;;;30.02;5.57;;;5.90;84.80;;;;;;4991522;28;20070;-81
2021/03/18 02:00:22;;;;;;;33.03;4.88;;;5.80;84.90;;;;;;5001318;28;20512;-80
2021/03/18 02:02:48;;;;;;;28.58;5.63;;;5.80;85.00;;;;;;4997171;28;20034;-80
2021/03/18 02:05:14;;;;;;;27.85;6.47;;;5.70;85.10;;;;;;4991747;28;20041;-79
2021/03/18 02:07:39;;;;;;;34.00;6.55;;;5.70;85.10;;;;;;5003519;28;20417;-79
2021/03/18 02:10:08;;;;;;;25.27;5.43;;;5.70;85.00;;;;;;5001620;28;20478;-79
2021/03/18 02:12:35;;;;;;;28.30;5.75;;;5.70;85.00;;;;;;4999805;28;20508;-81
2021/03/18 02:15:01;;;;;;;31.02;5.68;;;5.60;85.00;;;;;;5017868;28;20389;-79
2021/03/18 02:17:49;;;;;;;27.38;5.82;;;5.70;84.90;;;;;;4998153;28;20038;-79
2021/03/18 02:20:33;;;;;;;25.83;5.57;;;5.60;84.50;;;;;;5010238;28;20038;-80
2021/03/18 02:23:29;;;;;;;27.80;5.03;;;5.60;84.60;;;;;;5004538;28;20042;-81
2021/03/18 02:26:22;;;;;;;24.23;5.00;;;5.60;84.50;;;;;;5002446;28;20439;-80
2021/03/18 02:29:01;;;;;;;23.35;4.05;;;5.60;84.10;;;;;;5004882;28;20031;-79
2021/03/18 02:31:38;;;;;;;24.10;5.07;;;5.60;84.00;;;;;;5003230;28;20176;-79
2021/03/18 02:34:12;;;;;;;24.30;5.03;;;5.60;83.70;;;;;;5007111;28;20037;-80
2021/03/18 02:36:49;;;;;;;26.95;4.57;;;5.50;83.50;;;;;;5009510;28;20072;-79
2021/03/18 02:39:23;;;;;;;27.50;4.07;;;5.50;83.40;;;;;;4996521;28;20030;-81
2021/03/18 02:41:54;;;;;;;26.87;6.20;;;5.50;83.10;;;;;;4999207;28;20059;-81
2021/03/18 02:44:24;;;;;;;21.55;3.63;;;5.50;83.10;;;;;;4998116;28;20100;-81
2021/03/18 02:46:56;;;;;;;20.88;4.47;;;5.50;83.00;;;;;;5000074;28;20096;-79
2021/03/18 02:49:23;;;;;;;25.60;5.28;;;5.50;83.00;;;;;;5004755;28;20454;-79
2021/03/18 02:51:51;;;;;;;21.40;5.32;;;5.50;82.70;;;;;;5016652;28;20034;-81
2021/03/18 02:54:19;;;;;;;23.25;4.80;;;5.40;82.70;;;;;;4998740;28;20169;-79
2021/03/18 02:56:47;;;;;;;21.33;4.72;;;5.40;82.60;;;;;;4993550;28;20038;-79
2021/03/18 02:59:18;;;;;;;22.27;3.92;;;5.50;82.80;;;;;;5008693;28;20021;-79
2021/03/18 03:01:46;;;;;;;23.98;4.47;;;5.40;82.70;;;;;;4991904;28;20029;-79
2021/03/18 03:04:13;;;;;;;27.92;4.63;;;5.40;82.70;;;;;;5012439;28;20427;-80
2021/03/18 03:06:39;;;;;;;23.48;4.85;;;5.40;82.70;;;;;;5016417;28;20074;-80
2021/03/18 03:09:07;;;;;;;22.90;4.50;;;5.40;82.80;;;;;;5002127;28;20466;-79
2021/03/18 03:11:35;;;;;;;23.33;4.30;;;5.30;82.80;;;;;;5000636;28;20030;-81
2021/03/18 03:14:03;;;;;;;19.77;4.60;;;5.30;82.80;;;;;;5012746;28;20057;-80
2021/03/18 03:16:30;;;;;;;23.85;4.93;;;5.20;83.00;;;;;;5012056;28;20034;-80
2021/03/18 03:18:58;;;;;;;23.42;3.80;;;5.20;83.10;;;;;;5016526;28;20023;-79
2021/03/18 03:21:24;;;;;;;18.80;4.45;;;5.20;83.10;;;;;;5005564;28;20054;-81
2021/03/18 03:23:51;;;;;;;30.58;4.80;;;5.20;83.10;;;;;;5025280;28;20429;-78
2021/03/18 03:26:19;;;;;;;18.38;3.80;;;5.20;83.10;;;;;;5008569;28;20087;-81
2021/03/18 03:28:47;;;;;;;21.55;3.80;;;5.20;83.10;;;;;;5004864;28;20029;-79
2021/03/18 03:31:13;;;;;;;17.33;4.20;;;5.20;83.30;;;;;;5001958;28;20026;-80
2021/03/18 03:33:40;;;;;;;18.85;4.03;;;5.10;83.30;;;;;;4998210;28;20048;-80
2021/03/18 03:36:06;;;;;;;22.55;4.40;;;5.10;83.50;;;;;;5006311;28;20038;-80
2021/03/18 03:38:32;;;;;;;21.45;4.18;;;5.10;83.50;;;;;;5001128;28;20105;-81
2021/03/18 03:40:58;;;;;;;25.48;5.28;;;5.10;83.80;;;;;;5012807;28;20084;-79
2021/03/18 03:43:24;;;;;;;20.95;4.97;;;5.10;83.80;;;;;;5006204;28;20480;-82
2021/03/18 03:45:52;;;;;;;18.48;4.05;;;5.00;83.90;;;;;;4998486;28;20623;-79
2021/03/18 03:48:19;;;;;;;21.88;5.10;;;5.00;84.00;;;;;;5001481;28;20038;-80
2021/03/18 03:50:45;;;;;;;23.98;4.97;;;4.90;84.10;;;;;;5005789;28;20030;-79
2021/03/18 03:53:23;;;;;;;17.90;4.05;;;4.90;84.20;;;;;;4997214;28;20117;-79
2021/03/18 03:55:54;;;;;;;19.75;3.95;;;4.80;84.30;;;;;;4993168;28;20035;-79
2021/03/18 03:58:41;;;;;;;27.45;5.43;;;4.90;84.40;;;;;;5012696;28;20427;-79
2021/03/18 04:01:16;;;;;;;21.67;5.85;;;4.90;84.40;;;;;;4996484;28;20045;-80
2021/03/18 04:03:43;;;;;;;19.40;4.38;;;4.90;84.30;;;;;;4999252;28;20047;-80
2021/03/18 04:06:09;;;;;;;22.27;5.15;;;4.80;84.40;;;;;;4997527;28;20145;-80
2021/03/18 04:08:40;;;;;;;30.25;5.78;;;4.90;84.40;;;;;;5000614;28;20411;-79
2021/03/18 04:11:07;;;;;;;25.60;4.55;;;4.90;84.30;;;;;;5006642;28;20450;-79
2021/03/18 04:13:34;;;;;;;24.33;4.45;;;4.90;84.50;;;;;;5000166;28;20129;-80
2021/03/18 04:16:02;;;;;;;20.13;4.78;;;4.90;84.30;;;;;;5003850;28;20487;-79
2021/03/18 04:18:31;;;;;;;18.48;3.95;;;5.00;84.40;;;;;;4995053;28;20091;-79
2021/03/18 04:20:58;;;;;;;22.40;4.68;;;5.00;84.50;;;;;;4997317;28;20039;-80
2021/03/18 04:23:27;;;;;;;23.10;4.72;;;5.00;84.70;;;;;;5001037;28;20034;-80
2021/03/18 04:25:56;;;;;;;20.40;5.05;;;5.00;84.70;;;;;;4997638;28;20080;-79
2021/03/18 04:28:23;;;;;;;22.73;4.20;;;5.10;84.60;;;;;;4992962;28;20112;-80
2021/03/18 04:30:49;;;;;;;28.02;5.43;;;5.10;84.70;;;;;;5003538;28;20030;-79
2021/03/18 04:33:15;;;;;;;22.48;4.35;;;5.10;84.70;;;;;;4995567;28;20073;-80
2021/03/18 04:35:42;;;;;;;22.48;5.50;;;5.10;84.70;;;;;;4996753;28;20047;-81
2021/03/18 04:38:08;;;;;;;19.90;4.47;;;5.10;84.90;;;;;;4991777;28;20574;-79
2021/03/18 04:40:34;;;;;;;21.95;5.07;;;5.20;85.20;;;;;;4992638;28;20027;-79
2021/03/18 04:43:02;;;;;;;22.60;5.35;;;5.20;85.30;;;;;;5001038;28;20142;-79
2021/03/18 04:45:30;;;;;;;20.80;5.00;;;5.20;85.60;;;;;;4995906;28;20230;-82
2021/03/18 04:47:57;;;;;;;24.13;5.60;;;5.20;85.70;;;;;;5000216;28;20034;-79
2021/03/18 04:50:24;;;;;;;27.50;6.03;;;5.30;86.00;;;;;;5002300;28;20034;-79
2021/03/18 04:52:51;;;;;;;19.98;5.07;;;5.30;86.20;;;;;;5001295;28;20192;-79
2021/03/18 04:55:20;;;;;;;29.30;5.90;;;5.30;86.40;;;;;;5009580;28;20073;-80
2021/03/18 04:58:04;;;;;;;24.35;5.97;;;5.30;86.50;;;;;;5000346;28;20026;-80
2021/03/18 05:00:31;;;;;;;29.63;5.72;;;5.30;86.60;;;;;;4997632;28;20515;-79
2021/03/18 05:03:01;;;;;;;22.33;5.68;;;5.30;86.40;;;;;;5005942;28;20459;-80
2021/03/18 05:05:29;;;;;;;18.52;4.38;;;5.40;86.40;;;;;;4998034;28;20042;-81
2021/03/18 05:07:56;;;;;;;24.70;5.00;;;5.30;86.50;;;;;;4996651;28;20037;-79
2021/03/18 05:10:25;;;;;;;21.52;4.38;;;5.30;86.00;;;;;;4998179;28;20097;-80
2021/03/18 05:12:53;;;;;;;21.02;5.00;;;5.30;85.90;;;;;;5001119;28;20022;-79
2021/03/18 05:15:19;;;;;;;21.50;4.57;;;5.30;85.80;;;;;;4996207;28;20046;-79
2021/03/18 05:17:46;;;;;;;20.50;4.78;;;5.30;85.70;;;;;;5000700;28;20184;-79
2021/03/18 05:20:15;;;;;;;22.50;4.80;;;5.30;85.70;;;;;;5003333;28;20038;-79
2021/03/18 05:22:44;;;;;;;18.60;4.07;;;5.30;85.60;;;;;;4991484;28;20041;-79
2021/03/18 05:25:10;;;;;;;15.60;4.18;;;5.30;85.50;;;;;;5002968;28;20068;-80
2021/03/18 05:27:38;;;;;;;27.30;5.78;;;5.30;85.60;;;;;;5004104;28;20389;-80
2021/03/18 05:30:07;;;;;;;19.75;4.05;;;5.30;85.80;;;;;;5007501;28;20524;-79
2021/03/18 05:32:33;;;;;;;20.85;3.85;;;5.20;86.10;;;;;;5019399;28;20539;-79
2021/03/18 05:34:58;;;;;;;21.42;3.67;;;5.20;86.20;;;;;;5009106;28;20041;-79
2021/03/18 05:37:24;;;;;;;18.95;4.75;;;5.20;86.30;;;;;;5001515;28;20038;-80
2021/03/18 05:39:50;;;;;;;20.10;3.90;;;5.20;86.50;;;;;;4998454;28;20086;-79
2021/03/18 05:42:17;;;;;;;17.08;3.72;;;5.20;86.60;;;;;;5022805;28;20021;-79
2021/03/18 05:44:45;;;;;;;19.40;4.35;;;5.20;86.60;;;;;;4997341;28;20038;-79
2021/03/18 05:47:11;;;;;;;19.98;4.22;;;5.20;86.60;;;;;;5003025;28;20476;-80
2021/03/18 05:49:37;;;;;;;14.85;5.07;;;5.20;86.80;;;;;;5001995;28;20046;-79
2021/03/18 05:52:07;;;;;;;14.82;4.18;;;5.20;87.10;;;;;;4992990;28;20406;-81
2021/03/18 05:54:34;;;;;;;16.80;3.95;;;5.20;87.20;;;;;;4993372;28;20369;-80
2021/03/18 05:57:00;;;;;;;14.85;4.13;;;5.20;87.30;;;;;;5005247;28;20034;-82
2021/03/18 05:59:28;;;;;;;20.00;4.93;;;5.20;87.40;;;;;;4998618;28;20029;-80
2021/03/18 06:01:54;;;;;;;20.10;4.78;;;5.30;87.50;;;;;;4999663;28;20481;-82
2021/03/18 06:04:20;;;;;;;18.77;4.20;;;5.30;87.40;;;;;;4994645;28;20053;-82
2021/03/18 06:06:47;;;;;;;17.73;4.78;;;5.30;87.50;;;;;;4993850;28;20042;-79
2021/03/18 06:09:13;;;;;;;15.75;4.63;;;5.30;87.60;;;;;;4989149;28;20030;-80
2021/03/18 06:11:39;;;;;;;18.38;4.88;;;5.40;87.70;;;;;;4993655;28;20056;-81
2021/03/18 06:14:05;;;;;;;15.60;4.57;;;5.40;87.80;;;;;;4986854;28;20045;-81
2021/03/18 06:16:32;;;;;;;19.23;4.30;;;5.40;87.90;;;;;;4991510;28;20026;-81
2021/03/18 06:19:00;;;;;;;18.40;4.82;;;5.50;87.80;;;;;;4992062;28;20152;-80
2021/03/18 06:21:53;;;;;;;13.55;4.70;;;5.50;87.80;;;;;;5003650;28;20033;-82
2021/03/18 06:24:20;;;;;;;18.20;4.65;;;5.50;87.80;;;;;;4989703;28;20170;-81
2021/03/18 06:26:46;;;;;;;14.10;4.32;;;5.60;87.70;;;;;;4989391;28;20477;-83
2021/03/18 06:29:35;;;;;;;14.98;3.55;;;5.50;87.80;;;;;;4990175;28;20042;-79
2021/03/18 06:32:12;;;;;;;14.90;3.90;;;5.60;87.90;;;;;;4992542;28;20046;-74
2021/03/18 06:34:44;;;;;;;12.60;4.15;;;5.60;87.90;;;;;;4996839;28;20069;-75
2021/03/18 06:37:40;;;;;;;13.10;4.68;;;5.60;87.90;;;;;;4993279;28;20042;-74
2021/03/18 06:40:05;;;;;;;;;;;5.60;87.70;;;;;;4994390;28;20045;-74
2021/03/18 06:42:35;;;;;;;12.68;4.75;;;5.60;87.90;;;;;;4994070;28;20517;-73
2021/03/18 06:45:13;;;;;;;13.20;5.00;;;5.50;87.90;;;;;;4991365;28;20065;-74
2021/03/18 06:47:40;;;;;;;16.10;5.55;;;5.60;88.00;;;;;;4996106;28;20538;-73
2021/03/18 06:50:06;;;;;;;22.77;5.22;;;5.60;88.20;;;;;;4995526;28;20034;-74
2021/03/18 06:52:38;;;;;;;18.80;5.50;;;5.60;88.20;;;;;;5010981;28;20061;-74
2021/03/18 06:55:10;;;;;;;21.17;5.88;;;5.60;88.30;;;;;;4988047;28;20294;-76
2021/03/18 06:57:37;;;;;;;17.98;5.75;;;5.60;88.20;;;;;;4987230;28;20571;-73
2021/03/18 07:00:08;;;;;;;24.17;9.15;;;5.70;88.20;;;;;;4989670;28;20048;-75
2021/03/18 07:02:40;;;;;;;19.50;6.32;;;5.70;88.10;;;;;;5003734;28;20069;-75
2021/03/18 07:05:17;;;;;;;20.63;7.32;;;5.70;88.20;;;;;;4979293;28;20587;-73
2021/03/18 07:07:43;;;;;;;20.48;6.85;;;5.80;88.30;;;;;;4985790;28;20036;-74
2021/03/18 07:10:10;;;;;;;18.85;5.72;;;5.80;88.20;;;;;;4995523;28;20655;-73
2021/03/18 07:12:35;;;;;;;18.60;6.65;;;5.80;88.10;;;;;;4978656;28;20061;-76
2021/03/18 07:15:14;;;;;;;19.05;5.57;;;5.80;88.00;;;;;;4982304;28;20139;-77
2021/03/18 07:17:41;;;;;;;23.67;8.75;;;5.80;88.00;;;;;;4979844;28;20041;-73
2021/03/18 07:20:14;;;;;;;19.80;8.55;;;5.70;88.10;;;;;;4985525;28;20092;-74
2021/03/18 07:22:41;;;;;;;21.10;7.03;;;5.70;88.20;;;;;;4994992;28;20088;-73
2021/03/18 07:25:10;;;;;;;15.50;6.03;;;5.80;88.50;;;;;;4998831;28;20539;-73
2021/03/18 07:27:41;;;;;;;20.55;8.07;;;5.80;88.60;;;;;;4984165;28;20382;-72
2021/03/18 07:30:08;;;;;;;19.98;8.70;;;5.90;88.60;;;;;;4988907;28;20419;-73
2021/03/18 07:32:34;;;;;;;24.42;10.65;;;5.90;88.40;;;;;;4996429;28;20037;-75
2021/03/18 07:35:00;;;;;;;15.45;7.63;;;5.90;88.20;;;;;;4985862;28;20030;-72
2021/03/18 07:37:25;;;;;;;20.73;6.70;;;5.90;88.40;;;;;;4982558;28;20537;-74
2021/03/18 07:39:51;;;;;;;16.38;6.15;;;6.00;88.30;;;;;;4987493;28;20268;-74
2021/03/18 07:42:18;;;;;;;18.70;6.63;;;6.00;88.30;;;;;;4990601;28;20404;-73
2021/03/18 07:44:45;;;;;;;18.10;5.97;;;6.00;88.30;;;;;;5001683;28;20316;-73
2021/03/18 07:47:14;;;;;;;17.38;5.85;;;6.00;88.00;;;;;;5003578;28;20041;-72
2021/03/18 07:49:43;;;;;;;14.23;5.13;;;6.10;88.10;;;;;;4999938;28;20042;-74
2021/03/18 07:52:15;;;;;;;15.50;6.00;;;6.10;88.10;;;;;;4993550;28;20030;-72
2021/03/18 07:54:45;;;;;;;17.08;6.13;;;6.10;88.20;;;;;;4998248;28;20112;-73
2021/03/18 07:57:15;;;;;;;18.13;6.07;;;6.10;88.20;;;;;;4998405;28;20032;-73
2021/03/18 07:59:42;;;;;;;16.92;5.75;;;6.10;88.20;;;;;;4998201;28;20041;-73
2021/03/18 08:02:15;;;;;;;18.70;5.43;;;6.20;88.30;;;;;;4998609;28;20125;-73
2021/03/18 08:04:52;;;;;;;16.67;4.97;;;6.20;88.10;;;;;;5005531;28;20120;-73
2021/03/18 08:07:47;;;;;;;18.95;6.05;;;6.20;88.20;;;;;;4998843;28;20081;-72
2021/03/18 08:10:20;;;;;;;14.20;5.30;;;6.50;88.20;;;;;;4995615;28;20026;-73
2021/03/18 08:12:54;;;;;;;15.60;5.15;;;6.60;88.40;;;;;;4999406;28;20025;-72
2021/03/18 08:15:23;;;;;;;11.35;4.45;;;6.60;87.90;;;;;;4998104;28;20038;-70
2021/03/18 08:17:53;;;;;;;13.40;4.75;;;6.70;87.70;;;;;;5000139;28;20527;-71
2021/03/18 08:20:37;;;;;;;11.20;3.70;;;6.80;87.50;;;;;;4990692;28;20026;-71
2021/03/18 08:23:28;;;;;;;11.55;4.13;;;6.90;87.20;;;;;;4987622;28;20572;-72
2021/03/18 08:25:59;;;;;;;8.35;3.00;;;7.00;87.00;;;;;;5001782;28;20054;-72
2021/03/18 08:28:42;;;;;;;9.98;3.05;;;7.10;86.70;;;;;;4998625;28;20042;-73
2021/03/18 08:31:34;;;;;;;11.50;3.55;;;7.20;86.00;;;;;;4991047;28;20042;-71
2021/03/18 08:34:02;;;;;;;8.43;3.53;;;7.30;85.50;;;;;;4989200;28;20064;-71
2021/03/18 08:36:34;;;;;;;11.00;3.63;;;7.40;85.10;;;;;;5001371;28;20068;-74
2021/03/18 08:38:59;;;;;;;11.48;4.07;;;7.50;84.80;;;;;;4999802;28;20033;-72
2021/03/18 08:41:34;;;;;;;10.98;3.50;;;7.50;84.20;;;;;;4995349;28;21961;-72
2021/03/18 08:44:33;;;;;;;14.43;4.53;;;7.50;84.10;;;;;;5002103;28;20215;-72
2021/03/18 08:47:06;;;;;;;14.98;4.75;;;7.50;84.50;;;;;;5006575;28;20025;-71
2021/03/18 08:49:36;;;;;;;13.68;4.45;;;7.60;84.20;;;;;;5003256;28;20053;-73
2021/03/18 08:52:04;;;;;;;11.88;4.13;;;7.50;84.10;;;;;;5005445;28;20762;-71
2021/03/18 08:54:39;;;;;;;15.15;5.55;;;7.40;84.60;;;;;;4994310;28;20061;-71
2021/03/18 08:57:10;;;;;;;14.88;5.78;;;7.40;84.60;;;;;;5002428;28;20018;-72
2021/03/18 08:59:38;;;;;;;16.63;6.80;;;7.30;84.70;;;;;;5001162;28;20050;-70
2021/03/18 09:02:04;;;;;;;13.85;4.90;;;7.30;85.00;;;;;;5000710;28;20022;-71
2021/03/18 09:04:41;;;;;;;17.70;5.47;;;7.20;85.20;;;;;;4993127;28;20061;-72
2021/03/18 09:07:11;;;;;;;14.75;6.68;;;7.20;85.50;;;;;;5007549;28;20025;-71
2021/03/18 09:09:37;;;;;;;22.50;7.47;;;7.10;85.80;;;;;;4989786;28;20030;-72
2021/03/18 09:12:04;;;;;;;20.50;8.27;;;7.00;85.90;;;;;;4996229;28;20038;-71
2021/03/18 09:14:30;;;;;;;18.95;9.32;;;7.00;86.30;;;;;;4993557;28;20046;-73
2021/03/18 09:17:04;;;;;;;23.42;8.05;;;7.10;86.10;;;;;;5003274;28;20049;-72
2021/03/18 09:19:29;;;;;;;19.48;8.95;;;7.10;86.20;;;;;;5000722;28;20100;-72
2021/03/18 09:21:55;;;;;;;21.05;8.32;;;7.20;86.10;;;;;;5001853;28;20453;-71
2021/03/18 09:24:20;;;;;;;18.17;8.15;;;7.20;86.00;;;;;;5009533;28;20466;-71
2021/03/18 09:26:46;;;;;;;19.92;10.50;;;7.20;86.10;;;;;;4997139;28;20042;-72
2021/03/18 09:29:12;;;;;;;22.23;9.55;;;7.30;86.10;;;;;;5012172;28;20033;-73
2021/03/18 09:31:38;;;;;;;17.08;7.80;;;7.30;86.30;;;;;;5001013;28;20362;-75
2021/03/18 09:34:03;;;;;;;20.30;8.35;;;7.40;86.20;;;;;;4997567;28;20053;-72
2021/03/18 09:36:31;;;;;;;17.65;8.52;;;7.40;86.30;;;;;;5002686;28;20051;-73
2021/03/18 09:39:15;;;;;;;26.38;11.93;;;7.40;86.30;;;;;;5001569;28;20057;-73
2021/03/18 09:41:47;;;;;;;24.27;7.38;;;7.20;86.40;;;;;;5000610;28;20041;-72
2021/03/18 09:44:16;;;;;;;22.58;7.03;;;7.20;87.10;;;;;;4997331;28;20038;-73
2021/03/18 09:46:48;;;;;;;18.50;6.43;;;7.20;87.20;;;;;;5010587;28;20563;-74
2021/03/18 09:49:14;;;;;;;18.13;6.63;;;7.20;87.00;;;;;;5001710;28;20065;-72
2021/03/18 09:51:42;;;;;;;14.18;5.60;;;7.40;86.90;;;;;;5006713;28;20053;-73
2021/03/18 09:54:10;;;;;;;19.30;6.10;;;7.50;86.40;;;;;;5004187;28;20026;-71
2021/03/18 09:56:41;;;;;;;15.10;5.30;;;7.50;86.00;;;;;;5001561;28;20427;-70
2021/03/18 09:59:08;;;;;;;19.02;7.28;;;7.80;85.50;;;;;;4999471;28;20118;-72
2021/03/18 10:01:35;;;;;;;15.73;5.28;;;8.20;84.40;;;;;;4998057;28;20030;-71
2021/03/18 10:04:00;;;;;;;12.18;4.70;;;8.50;83.40;;;;;;4999739;28;20477;-73
2021/03/18 10:06:37;;;;;;;11.60;4.30;;;8.60;81.20;;;;;;4997540;28;20050;-73
2021/03/18 10:09:25;;;;;;;11.23;4.30;;;8.60;82.00;;;;;;5000679;28;20033;-73
2021/03/18 10:11:54;;;;;;;9.75;4.22;;;8.40;81.50;;;;;;5001239;28;20042;-72
2021/03/18 10:14:25;;;;;;;13.70;4.22;;;8.20;81.80;;;;;;4993238;28;20038;-72
2021/03/18 10:16:53;;;;;;;13.93;4.35;;;8.10;81.80;;;;;;5005709;28;20029;-70
2021/03/18 10:19:22;;;;;;;15.98;5.85;;;7.90;82.30;;;;;;4998886;28;20041;-71
2021/03/18 10:21:49;;;;;;;13.82;5.72;;;7.80;83.30;;;;;;5001881;28;20062;-71
2021/03/18 10:24:15;;;;;;;12.60;4.43;;;7.70;84.30;;;;;;4996777;28;20030;-71
2021/03/18 10:26:41;;;;;;;15.05;5.45;;;7.70;84.40;;;;;;5001925;28;20093;-71
2021/03/18 10:29:09;;;;;;;13.65;4.45;;;7.70;84.40;;;;;;5000711;28;20041;-72
2021/03/18 10:31:38;;;;;;;14.88;4.63;;;7.60;84.60;;;;;;5000855;28;20065;-72
2021/03/18 10:34:05;;;;;;;17.88;5.00;;;7.50;85.10;;;;;;5002164;28;20026;-72
2021/03/18 10:36:41;;;;;;;10.15;5.43;;;7.50;85.90;;;;;;5011544;28;20082;-75
2021/03/18 10:39:11;;;;;;;11.63;4.22;;;7.60;85.80;;;;;;5001607;28;20126;-74
2021/03/18 10:41:49;;;;;;;14.82;5.97;;;7.60;85.40;;;;;;5009775;28;20399;-72
2021/03/18 10:44:16;;;;;;;13.35;5.65;;;7.60;85.90;;;;;;5003170;28;20370;-72
2021/03/18 10:46:41;;;;;;;16.63;8.20;;;7.80;85.60;;;;;;4998625;28;20085;-73
2021/03/18 10:49:11;;;;;;;11.02;6.05;;;7.90;85.10;;;;;;5000289;28;20034;-71
2021/03/18 10:51:51;;;;;;;15.98;8.20;;;8.20;85.00;;;;;;5003111;28;20292;-71
2021/03/18 10:54:18;;;;;;;13.50;4.65;;;8.40;84.80;;;;;;4989576;28;20034;-73
2021/03/18 10:56:44;;;;;;;9.05;3.13;;;8.40;83.30;;;;;;4994180;28;20045;-74
2021/03/18 10:59:22;;;;;;;14.35;4.95;;;8.30;83.00;;;;;;4994021;28;20030;-72
2021/03/18 11:01:48;;;;;;;12.20;3.42;;;8.10;83.60;;;;;;5005918;28;20038;-73
2021/03/18 11:04:14;;;;;;;11.55;3.20;;;8.00;83.90;;;;;;4994296;28;20026;-72
2021/03/18 11:06:50;;;;;;;11.52;3.78;;;8.10;84.40;;;;;;4996866;28;20030;-72
2021/03/18 11:09:19;;;;;;;9.82;3.15;;;8.10;83.80;;;;;;5012800;28;20030;-74
2021/03/18 11:11:57;;;;;;;10.07;3.63;;;8.30;83.20;;;;;;5006178;28;20077;-71
2021/03/18 11:14:24;;;;;;;8.88;3.60;;;8.30;82.50;;;;;;4997439;28;20034;-71
2021/03/18 11:17:04;;;;;;;9.43;2.85;;;8.10;82.50;;;;;;4996916;28;20026;-71
2021/03/18 11:19:30;;;;;;;11.10;3.45;;;8.10;83.00;;;;;;5001419;28;20124;-72
2021/03/18 11:22:00;;;;;;;7.68;2.65;;;8.10;83.40;;;;;;4999745;28;20125;-72
2021/03/18 11:24:28;;;;;;;3.95;1.90;;;8.00;83.20;;;;;;5004764;28;20038;-72
2021/03/18 11:26:53;;;;;;;6.15;1.80;;;7.90;82.70;;;;;;4994296;28;20049;-73
2021/03/18 11:29:22;;;;;;;5.38;2.35;;;7.90;83.30;;;;;;4998050;28;20046;-71
2021/03/18 11:31:54;;;;;;;9.52;3.72;;;7.90;83.70;;;;;;4996830;28;20053;-70
2021/03/18 11:34:22;;;;;;;7.40;2.92;;;8.10;84.00;;;;;;4997858;28;20057;-72
2021/03/18 11:36:50;;;;;;;6.75;2.92;;;8.10;83.60;;;;;;4995256;28;20030;-72
2021/03/18 11:39:17;;;;;;;9.30;3.08;;;8.20;83.70;;;;;;4994538;28;20124;-72
2021/03/18 11:41:43;;;;;;;7.45;2.70;;;8.30;83.30;;;;;;5003184;28;20074;-72
2021/03/18 11:44:08;;;;;;;7.13;2.50;;;8.40;83.40;;;;;;4999495;28;20073;-72
2021/03/18 11:46:34;;;;;;;7.72;2.03;;;8.40;80.80;;;;;;5000414;28;20401;-73
2021/03/18 11:49:00;;;;;;;8.82;2.38;;;8.50;81.10;;;;;;5002076;28;20383;-72
2021/03/18 11:51:26;;;;;;;9.73;3.58;;;8.70;80.70;;;;;;4994666;28;20473;-72
2021/03/18 11:53:53;;;;;;;7.85;2.65;;;8.80;79.80;;;;;;4997366;28;20018;-72
2021/03/18 11:56:19;;;;;;;15.77;5.50;;;8.80;80.20;;;;;;4995572;28;20038;-72
2021/03/18 11:58:44;;;;;;;10.02;3.20;;;8.70;79.70;;;;;;5000746;28;20088;-72
2021/03/18 12:01:10;;;;;;;9.20;2.92;;;8.60;80.50;;;;;;5003551;28;20972;-72
2021/03/18 12:03:36;;;;;;;10.85;3.30;;;8.60;80.50;;;;;;5001733;28;20052;-72
2021/03/18 12:06:02;;;;;;;6.45;2.80;;;8.60;80.70;;;;;;5000081;28;20571;-72
2021/03/18 12:08:28;;;;;;;6.88;3.03;;;8.40;80.70;;;;;;5004336;28;20049;-73
2021/03/18 12:10:55;;;;;;;12.75;2.90;;;8.50;81.20;;;;;;5000986;28;20034;-71
2021/03/18 12:13:22;;;;;;;8.38;2.85;;;8.40;80.80;;;;;;5000691;28;20042;-73
2021/03/18 12:15:47;;;;;;;6.65;2.40;;;8.60;80.60;;;;;;5003607;28;20117;-72
2021/03/18 12:18:13;;;;;;;10.18;3.30;;;8.50;80.30;;;;;;5004709;28;20141;-71
2021/03/18 12:20:39;;;;;;;7.38;2.17;;;8.50;80.10;;;;;;4998954;28;20053;-72
2021/03/18 12:23:05;;;;;;;5.75;2.22;;;8.40;78.10;;;;;;4995226;28;20382;-71
2021/03/18 12:25:31;;;;;;;6.80;2.45;;;8.50;79.20;;;;;;5001549;28;20133;-73
2021/03/18 12:27:56;;;;;;;7.55;2.33;;;8.70;79.80;;;;;;5003854;28;20061;-72
2021/03/18 12:30:23;;;;;;;6.57;2.40;;;8.70;78.80;;;;;;4999617;28;20034;-73
2021/03/18 12:32:50;;;;;;;7.05;2.38;;;8.70;78.70;;;;;;5002167;28;20022;-72
2021/03/18 12:35:18;;;;;;;6.00;1.92;;;8.80;78.00;;;;;;4998326;28;20079;-72
2021/03/18 12:37:47;;;;;;;5.75;2.28;;;9.00;78.20;;;;;;4994164;28;20105;-72
2021/03/18 12:40:13;;;;;;;7.95;2.60;;;9.10;78.40;;;;;;4998615;28;20023;-72
2021/03/18 12:42:39;;;;;;;6.90;2.22;;;9.10;78.90;;;;;;5003070;28;20037;-72
2021/03/18 12:45:07;;;;;;;9.48;3.03;;;9.10;79.70;;;;;;5001968;28;20056;-72
2021/03/18 12:47:33;;;;;;;7.95;2.25;;;9.40;77.40;;;;;;5022238;28;20034;-74
2021/03/18 12:49:59;;;;;;;5.65;2.42;;;9.50;76.60;;;;;;4999656;28;20042;-72
2021/03/18 12:52:24;;;;;;;9.75;2.53;;;9.60;76.00;;;;;;5005247;28;20041;-73
2021/03/18 12:54:50;;;;;;;4.45;1.98;;;9.70;74.50;;;;;;5003330;28;20476;-76
2021/03/18 12:57:16;;;;;;;7.53;2.28;;;9.40;75.10;;;;;;5001238;28;20035;-72
2021/03/18 12:59:42;;;;;;;7.03;2.05;;;9.20;75.00;;;;;;5006352;28;20054;-73